sensor_id;sensor_type;location;lat;lon;timestamp;pressure;altitude;pressure_sealevel;temperature;humidity
76352;BME280;65179;47.786;19.138;2023-10-09T00:01:52;101343.44;;;20.24;47.32
76352;BME280;65179;47.786;19.138;2023-10-09T00:04:18;101334.31;;;20.23;47.22
76352;BME280;65179;47.786;19.138;2023-10-09T00:06:45;101342.59;;;20.23;47.26
76352;BME280;65179;47.786;19.138;2023-10-09T00:09:12;101339.56;;;20.25;47.14
76352;BME280;65179;47.786;19.138;2023-10-09T00:11:49;101332.41;;;20.24;47.25
76352;BME280;65179;47.786;19.138;2023-10-09T00:14:25;101332.41;;;20.24;47.24
76352;BME280;65179;47.786;19.138;2023-10-09T00:16:51;101342.59;;;20.23;47.14
76352;BME280;65179;47.786;19.138;2023-10-09T00:19:43;101344.50;;;20.23;47.07
76352;BME280;65179;47.786;19.138;2023-10-09T00:22:09;101331.56;;;20.23;47.09
76352;BME280;65179;47.786;19.138;2023-10-09T00:25:04;101345.34;;;20.23;47.09
76352;BME280;65179;47.786;19.138;2023-10-09T00:27:46;101331.81;;;20.22;47.03
76352;BME280;65179;47.786;19.138;2023-10-09T00:30:15;101339.84;;;20.23;46.95
76352;BME280;65179;47.786;19.138;2023-10-09T00:32:44;101318.03;;;20.22;46.96
76352;BME280;65179;47.786;19.138;2023-10-09T00:35:29;101318.03;;;20.22;47.03
76352;BME280;65179;47.786;19.138;2023-10-09T00:38:11;101331.00;;;20.21;47.04
76352;BME280;65179;47.786;19.138;2023-10-09T00:40:49;101320.78;;;20.22;47.00
76352;BME280;65179;47.786;19.138;2023-10-09T00:43:30;101327.38;;;20.21;46.94
76352;BME280;65179;47.786;19.138;2023-10-09T00:45:58;101314.16;;;20.23;46.89
76352;BME280;65179;47.786;19.138;2023-10-09T00:48:42;101322.72;;;20.21;46.87
76352;BME280;65179;47.786;19.138;2023-10-09T00:51:08;101317.19;;;20.21;46.95
76352;BME280;65179;47.786;19.138;2023-10-09T00:53:56;101303.66;;;20.20;46.90
76352;BME280;65179;47.786;19.138;2023-10-09T00:56:44;101302.56;;;20.21;46.78
76352;BME280;65179;47.786;19.138;2023-10-09T00:59:17;101310.84;;;20.21;46.82
76352;BME280;65179;47.786;19.138;2023-10-09T01:01:46;101300.88;;;20.20;46.87
76352;BME280;65179;47.786;19.138;2023-10-09T01:04:30;101299.81;;;20.21;46.80
76352;BME280;65179;47.786;19.138;2023-10-09T01:07:02;101303.66;;;20.20;46.72
76352;BME280;65179;47.786;19.138;2023-10-09T01:09:55;101300.03;;;20.19;46.69
76352;BME280;65179;47.786;19.138;2023-10-09T01:12:21;101309.16;;;20.20;46.64
76352;BME280;65179;47.786;19.138;2023-10-09T01:14:46;101320.19;;;20.20;46.64
76352;BME280;65179;47.786;19.138;2023-10-09T01:17:20;101325.72;;;20.20;46.61
76352;BME280;65179;47.786;19.138;2023-10-09T01:20:01;101335.06;;;20.19;46.61
76352;BME280;65179;47.786;19.138;2023-10-09T01:22:29;101333.97;;;20.20;46.58
76352;BME280;65179;47.786;19.138;2023-10-09T01:24:55;101337.81;;;20.19;46.52
76352;BME280;65179;47.786;19.138;2023-10-09T01:27:20;101330.38;;;20.19;46.51
76352;BME280;65179;47.786;19.138;2023-10-09T01:29:49;101315.75;;;20.19;46.52
76352;BME280;65179;47.786;19.138;2023-10-09T01:32:17;101313.84;;;20.19;46.53
76352;BME280;65179;47.786;19.138;2023-10-09T01:34:44;101331.47;;;20.18;46.48
76352;BME280;65179;47.786;19.138;2023-10-09T01:37:20;101325.94;;;20.18;46.52
76352;BME280;65179;47.786;19.138;2023-10-09T01:39:53;101329.53;;;20.19;46.30
76352;BME280;65179;47.786;19.138;2023-10-09T01:42:20;101340.59;;;20.19;46.44
76352;BME280;65179;47.786;19.138;2023-10-09T01:44:56;101326.78;;;20.19;46.44
76352;BME280;65179;47.786;19.138;2023-10-09T01:47:25;101338.94;;;20.18;46.42
76352;BME280;65179;47.786;19.138;2023-10-09T01:49:56;101342.50;;;20.18;46.42
76352;BME280;65179;47.786;19.138;2023-10-09T01:52:23;101329.53;;;20.19;46.43
76352;BME280;65179;47.786;19.138;2023-10-09T01:54:51;101322.38;;;20.18;46.34
76352;BME280;65179;47.786;19.138;2023-10-09T01:57:19;101311.34;;;20.18;46.31
76352;BME280;65179;47.786;19.138;2023-10-09T01:59:49;101303.06;;;20.18;46.33
76352;BME280;65179;47.786;19.138;2023-10-09T02:02:18;101316.03;;;20.17;46.33
76352;BME280;65179;47.786;19.138;2023-10-09T02:04:58;101327.06;;;20.17;46.22
76352;BME280;65179;47.786;19.138;2023-10-09T02:07:49;101330.66;;;20.18;46.25
76352;BME280;65179;47.786;19.138;2023-10-09T02:10:24;101325.37;;;20.16;46.12
76352;BME280;65179;47.786;19.138;2023-10-09T02:12:50;101323.47;;;20.17;46.12
76352;BME280;65179;47.786;19.138;2023-10-09T02:15:23;101334.50;;;20.17;46.24
76352;BME280;65179;47.786;19.138;2023-10-09T02:20:48;101334.50;;;20.17;46.14
76352;BME280;65179;47.786;19.138;2023-10-09T02:23:40;101332.00;;;20.15;46.12
76352;BME280;65179;47.786;19.138;2023-10-09T02:26:16;101325.37;;;20.16;46.18
76352;BME280;65179;47.786;19.138;2023-10-09T02:28:55;101301.66;;;20.15;46.23
76352;BME280;65179;47.786;19.138;2023-10-09T02:31:27;101295.88;;;20.17;46.22
76352;BME280;65179;47.786;19.138;2023-10-09T02:34:01;101293.38;;;20.15;46.24
76352;BME280;65179;47.786;19.138;2023-10-09T02:36:31;101295.31;;;20.15;46.16
76352;BME280;65179;47.786;19.138;2023-10-09T02:38:56;101291.47;;;20.16;46.23
76352;BME280;65179;47.786;19.138;2023-10-09T02:41:22;101278.75;;;20.15;46.18
76352;BME280;65179;47.786;19.138;2023-10-09T02:43:54;101267.72;;;20.15;46.13
76352;BME280;65179;47.786;19.138;2023-10-09T02:46:23;101277.91;;;20.14;46.09
76352;BME280;65179;47.786;19.138;2023-10-09T02:48:56;101282.62;;;20.14;46.14
76352;BME280;65179;47.786;19.138;2023-10-09T02:51:27;101266.88;;;20.14;46.08
76352;BME280;65179;47.786;19.138;2023-10-09T02:53:53;101250.34;;;20.14;46.08
76352;BME280;65179;47.786;19.138;2023-10-09T02:56:21;101253.09;;;20.14;46.04
76352;BME280;65179;47.786;19.138;2023-10-09T02:58:51;101249.53;;;20.14;46.08
76352;BME280;65179;47.786;19.138;2023-10-09T03:01:16;101257.81;;;20.14;46.04
76352;BME280;65179;47.786;19.138;2023-10-09T03:03:42;101272.69;;;20.13;46.01
76352;BME280;65179;47.786;19.138;2023-10-09T03:06:12;101264.41;;;20.13;46.02
76352;BME280;65179;47.786;19.138;2023-10-09T03:08:39;101265.25;;;20.13;46.02
76352;BME280;65179;47.786;19.138;2023-10-09T03:11:07;101271.59;;;20.14;46.00
76352;BME280;65179;47.786;19.138;2023-10-09T03:13:40;101272.69;;;20.13;46.01
76352;BME280;65179;47.786;19.138;2023-10-09T03:16:08;101260.81;;;20.12;45.98
76352;BME280;65179;47.786;19.138;2023-10-09T03:18:34;101269.91;;;20.13;45.98
76352;BME280;65179;47.786;19.138;2023-10-09T03:21:02;101269.91;;;20.13;45.88
76352;BME280;65179;47.786;19.138;2023-10-09T03:23:27;101280.94;;;20.13;45.87
76352;BME280;65179;47.786;19.138;2023-10-09T03:25:54;101283.72;;;20.13;45.97
76352;BME280;65179;47.786;19.138;2023-10-09T03:28:21;101280.94;;;20.13;45.92
76352;BME280;65179;47.786;19.138;2023-10-09T03:30:46;101268.28;;;20.12;45.87
76352;BME280;65179;47.786;19.138;2023-10-09T03:33:13;101273.78;;;20.12;45.86
76352;BME280;65179;47.786;19.138;2023-10-09T03:35:40;101293.09;;;20.12;45.88
76352;BME280;65179;47.786;19.138;2023-10-09T03:38:05;101305.19;;;20.11;45.82
76352;BME280;65179;47.786;19.138;2023-10-09T03:40:43;101301.37;;;20.12;45.80
76352;BME280;65179;47.786;19.138;2023-10-09T03:43:10;101290.34;;;20.12;45.81
76352;BME280;65179;47.786;19.138;2023-10-09T03:45:36;101280.38;;;20.11;45.81
76352;BME280;65179;47.786;19.138;2023-10-09T03:48:04;101280.38;;;20.11;45.79
76352;BME280;65179;47.786;19.138;2023-10-09T03:50:36;101269.34;;;20.11;45.77
76352;BME280;65179;47.786;19.138;2023-10-09T03:53:06;101272.09;;;20.11;45.70
76352;BME280;65179;47.786;19.138;2023-10-09T03:55:36;101269.34;;;20.11;45.72
76352;BME280;65179;47.786;19.138;2023-10-09T03:58:03;101268.50;;;20.10;45.72
76352;BME280;65179;47.786;19.138;2023-10-09T04:00:29;101242.84;;;20.10;45.70
76352;BME280;65179;47.786;19.138;2023-10-09T04:02:56;101244.53;;;20.11;45.71
76352;BME280;65179;47.786;19.138;2023-10-09T04:05:25;101255.56;;;20.11;45.66
76352;BME280;65179;47.786;19.138;2023-10-09T04:07:51;101257.75;;;20.09;45.58
76352;BME280;65179;47.786;19.138;2023-10-09T04:10:20;101253.87;;;20.10;45.59
76352;BME280;65179;47.786;19.138;2023-10-09T04:13:21;101259.41;;;20.10;45.53
76352;BME280;65179;47.786;19.138;2023-10-09T04:15:57;101263.28;;;20.09;45.48
76352;BME280;65179;47.786;19.138;2023-10-09T04:18:24;101255.00;;;20.09;45.48
76352;BME280;65179;47.786;19.138;2023-10-09T04:20:58;101249.47;;;20.09;45.40
76352;BME280;65179;47.786;19.138;2023-10-09T04:23:45;101242.03;;;20.09;45.41
76352;BME280;65179;47.786;19.138;2023-10-09T04:26:34;101245.88;;;20.08;45.44
76352;BME280;65179;47.786;19.138;2023-10-09T04:29:00;101242.28;;;20.08;45.38
76352;BME280;65179;47.786;19.138;2023-10-09T04:31:28;101245.03;;;20.08;45.37
76352;BME280;65179;47.786;19.138;2023-10-09T04:33:58;101242.28;;;20.08;45.28
76352;BME280;65179;47.786;19.138;2023-10-09T04:36:42;101238.97;;;20.06;45.25
76352;BME280;65179;47.786;19.138;2023-10-09T04:39:22;101230.69;;;20.06;45.19
76352;BME280;65179;47.786;19.138;2023-10-09T04:41:57;101230.13;;;20.04;45.12
76352;BME280;65179;47.786;19.138;2023-10-09T04:44:42;101238.38;;;20.04;45.04
76352;BME280;65179;47.786;19.138;2023-10-09T04:47:27;101242.25;;;20.03;44.98
76352;BME280;65179;47.786;19.138;2023-10-09T04:50:04;101224.88;;;20.02;44.91
76352;BME280;65179;47.786;19.138;2023-10-09T04:52:35;101229.53;;;20.02;44.83
76352;BME280;65179;47.786;19.138;2023-10-09T04:55:00;101237.81;;;20.02;44.78
76352;BME280;65179;47.786;19.138;2023-10-09T04:57:50;101227.91;;;20.01;44.76
76352;BME280;65179;47.786;19.138;2023-10-09T05:00:28;101238.94;;;20.01;44.70
76352;BME280;65179;47.786;19.138;2023-10-09T05:02:55;101238.94;;;20.01;44.65
76352;BME280;65179;47.786;19.138;2023-10-09T05:05:27;101227.06;;;20.00;44.60
76352;BME280;65179;47.786;19.138;2023-10-09T05:08:11;101237.25;;;20.00;44.50
76352;BME280;65179;47.786;19.138;2023-10-09T05:10:46;101238.94;;;20.01;44.51
76352;BME280;65179;47.786;19.138;2023-10-09T05:13:27;101224.31;;;20.00;44.54
76352;BME280;65179;47.786;19.138;2023-10-09T05:16:06;101221.56;;;20.00;44.54
76352;BME280;65179;47.786;19.138;2023-10-09T05:18:45;101219.63;;;20.01;44.51
76352;BME280;65179;47.786;19.138;2023-10-09T05:21:22;101226.22;;;20.00;44.47
76352;BME280;65179;47.786;19.138;2023-10-09T05:23:59;101230.09;;;19.99;44.44
76352;BME280;65179;47.786;19.138;2023-10-09T05:26:41;101233.66;;;19.99;44.42
76352;BME280;65179;47.786;19.138;2023-10-09T05:29:32;101230.91;;;19.99;44.44
76352;BME280;65179;47.786;19.138;2023-10-09T05:32:02;101232.56;;;20.00;44.25
76352;BME280;65179;47.786;19.138;2023-10-09T05:34:28;101235.91;;;20.02;44.45
76352;BME280;65179;47.786;19.138;2023-10-09T05:37:06;101234.78;;;20.03;44.51
76352;BME280;65179;47.786;19.138;2023-10-09T05:39:53;101237.56;;;20.03;44.58
76352;BME280;65179;47.786;19.138;2023-10-09T05:42:28;101216.09;;;20.05;44.64
76352;BME280;65179;47.786;19.138;2023-10-09T05:45:06;101203.09;;;20.06;44.75
76352;BME280;65179;47.786;19.138;2023-10-09T05:47:52;101178.28;;;20.06;44.87
76352;BME280;65179;47.786;19.138;2023-10-09T05:50:21;101174.44;;;20.07;45.00
76352;BME280;65179;47.786;19.138;2023-10-09T05:52:47;101202.03;;;20.07;45.03
76352;BME280;65179;47.786;19.138;2023-10-09T05:55:25;101218.56;;;20.07;45.10
76352;BME280;65179;47.786;19.138;2023-10-09T05:57:51;101204.78;;;20.07;45.20
76352;BME280;65179;47.786;19.138;2023-10-09T06:00:28;101202.03;;;20.07;45.19
76352;BME280;65179;47.786;19.138;2023-10-09T06:03:12;101195.09;;;20.04;45.21
76352;BME280;65179;47.786;19.138;2023-10-09T06:05:48;101188.50;;;20.05;45.29
76352;BME280;65179;47.786;19.138;2023-10-09T06:08:33;101171.97;;;20.05;45.33
76352;BME280;65179;47.786;19.138;2023-10-09T06:11:08;101201.47;;;20.05;45.34
76352;BME280;65179;47.786;19.138;2023-10-09T06:13:53;101179.97;;;20.07;45.36
76352;BME280;65179;47.786;19.138;2023-10-09T06:16:39;101155.16;;;20.07;45.36
76352;BME280;65179;47.786;19.138;2023-10-09T06:19:09;101153.47;;;20.06;45.40
76352;BME280;65179;47.786;19.138;2023-10-09T06:21:41;101152.37;;;20.07;45.44
76352;BME280;65179;47.786;19.138;2023-10-09T06:24:22;101178.84;;;20.08;45.47
76352;BME280;65179;47.786;19.138;2023-10-09T06:26:49;101165.34;;;20.06;45.53
76352;BME280;65179;47.786;19.138;2023-10-09T06:29:23;101167.03;;;20.07;45.55
76352;BME280;65179;47.786;19.138;2023-10-09T06:32:16;101167.81;;;20.08;45.58
76352;BME280;65179;47.786;19.138;2023-10-09T06:37:18;101173.34;;;20.08;45.52
76352;BME280;65179;47.786;19.138;2023-10-09T06:39:56;101170.84;;;20.06;45.55
76352;BME280;65179;47.786;19.138;2023-10-09T06:42:25;101165.34;;;20.06;45.47
76352;BME280;65179;47.786;19.138;2023-10-09T06:45:08;101168.94;;;20.07;45.52
76352;BME280;65179;47.786;19.138;2023-10-09T06:47:35;101170.84;;;20.06;45.63
76352;BME280;65179;47.786;19.138;2023-10-09T06:50:12;101170.00;;;20.06;45.60
76352;BME280;65179;47.786;19.138;2023-10-09T06:52:47;101165.63;;;20.05;45.69
76352;BME280;65179;47.786;19.138;2023-10-09T06:55:45;101163.94;;;20.04;45.65
76352;BME280;65179;47.786;19.138;2023-10-09T06:58:15;101162.84;;;20.05;45.71
76352;BME280;65179;47.786;19.138;2023-10-09T07:00:48;101162.00;;;20.04;45.71
76352;BME280;65179;47.786;19.138;2023-10-09T07:03:20;101161.19;;;20.04;45.71
76352;BME280;65179;47.786;19.138;2023-10-09T07:06:05;101156.50;;;20.04;45.77
76352;BME280;65179;47.786;19.138;2023-10-09T07:08:36;101150.16;;;20.04;45.73
76352;BME280;65179;47.786;19.138;2023-10-09T07:11:23;101142.44;;;20.06;45.74
76352;BME280;65179;47.786;19.138;2023-10-09T07:14:08;101110.69;;;20.03;45.75
76352;BME280;65179;47.786;19.138;2023-10-09T07:16:46;101099.69;;;20.03;45.72
76352;BME280;65179;47.786;19.138;2023-10-09T07:19:26;101079.56;;;20.03;45.71
76352;BME280;65179;47.786;19.138;2023-10-09T07:22:24;101100.50;;;20.04;45.74
76352;BME280;65179;47.786;19.138;2023-10-09T07:24:55;101087.84;;;20.03;45.74
76352;BME280;65179;47.786;19.138;2023-10-09T07:27:25;101091.41;;;20.03;45.74
76352;BME280;65179;47.786;19.138;2023-10-09T07:30:11;101092.50;;;20.02;45.68
76352;BME280;65179;47.786;19.138;2023-10-09T07:32:56;101091.69;;;20.02;45.73
76352;BME280;65179;47.786;19.138;2023-10-09T07:35:47;101091.69;;;20.02;45.72
76352;BME280;65179;47.786;19.138;2023-10-09T07:38:16;101084.25;;;20.02;45.66
76352;BME280;65179;47.786;19.138;2023-10-09T07:40:46;101074.28;;;20.01;45.69
76352;BME280;65179;47.786;19.138;2023-10-09T07:43:34;101085.09;;;20.03;45.72
76352;BME280;65179;47.786;19.138;2023-10-09T07:46:18;101076.81;;;20.03;45.68
76352;BME280;65179;47.786;19.138;2023-10-09T07:48:59;101087.84;;;20.03;45.57
76352;BME280;65179;47.786;19.138;2023-10-09T07:51:26;101083.97;;;20.04;45.96
76352;BME280;65179;47.786;19.138;2023-10-09T07:54:01;101080.69;;;20.07;45.77
76352;BME280;65179;47.786;19.138;2023-10-09T07:56:39;101079.34;;;20.09;45.77
76352;BME280;65179;47.786;19.138;2023-10-09T07:59:07;101071.88;;;20.10;45.75
76352;BME280;65179;47.786;19.138;2023-10-09T08:01:50;101075.78;;;20.14;45.67
76352;BME280;65179;47.786;19.138;2023-10-09T08:04:23;101065.31;;;20.16;45.58
76352;BME280;65179;47.786;19.138;2023-10-09T08:07:09;101058.13;;;20.15;45.68
76352;BME280;65179;47.786;19.138;2023-10-09T08:09:38;101051.53;;;20.16;45.56
76352;BME280;65179;47.786;19.138;2023-10-09T08:12:15;101031.09;;;20.17;45.62
76352;BME280;65179;47.786;19.138;2023-10-09T08:14:59;101040.22;;;20.17;45.57
76352;BME280;65179;47.786;19.138;2023-10-09T08:20:50;101042.12;;;20.17;45.50
76352;BME280;65179;47.786;19.138;2023-10-09T08:23:27;101038.53;;;20.16;45.63
76352;BME280;65179;47.786;19.138;2023-10-09T08:26:04;101033.03;;;20.16;45.70
76352;BME280;65179;47.786;19.138;2023-10-09T08:28:43;101033.03;;;20.16;45.49
76352;BME280;65179;47.786;19.138;2023-10-09T08:31:13;101039.38;;;20.17;45.53
76352;BME280;65179;47.786;19.138;2023-10-09T08:34:02;101040.22;;;20.17;45.58
76352;BME280;65179;47.786;19.138;2023-10-09T08:36:29;101031.09;;;20.17;45.43
76352;BME280;65179;47.786;19.138;2023-10-09T08:39:02;101038.53;;;20.16;45.48
76352;BME280;65179;47.786;19.138;2023-10-09T08:41:40;101040.50;;;20.16;45.57
76352;BME280;65179;47.786;19.138;2023-10-09T08:44:06;101039.38;;;20.17;45.44
76352;BME280;65179;47.786;19.138;2023-10-09T08:46:32;101016.75;;;20.15;45.38
76352;BME280;65179;47.786;19.138;2023-10-09T08:48:59;101012.06;;;20.15;45.49
76352;BME280;65179;47.786;19.138;2023-10-09T08:51:26;101008.47;;;20.15;45.33
76352;BME280;65179;47.786;19.138;2023-10-09T08:53:52;101006.84;;;20.14;45.32
76352;BME280;65179;47.786;19.138;2023-10-09T08:56:19;100995.81;;;20.14;45.32
76352;BME280;65179;47.786;19.138;2023-10-09T08:58:52;100994.97;;;20.13;45.29
76352;BME280;65179;47.786;19.138;2023-10-09T09:01:20;100995.81;;;20.14;45.59
76352;BME280;65179;47.786;19.138;2023-10-09T09:03:48;101001.31;;;20.14;45.29
76352;BME280;65179;47.786;19.138;2023-10-09T09:06:14;100999.66;;;20.13;45.28
76352;BME280;65179;47.786;19.138;2023-10-09T09:08:40;100992.22;;;20.13;45.19
76352;BME280;65179;47.786;19.138;2023-10-09T09:11:09;100985.56;;;20.14;45.27
76352;BME280;65179;47.786;19.138;2023-10-09T09:13:47;100984.78;;;20.14;45.29
76352;BME280;65179;47.786;19.138;2023-10-09T09:16:21;100985.56;;;20.14;45.30
76352;BME280;65179;47.786;19.138;2023-10-09T09:18:58;100968.47;;;20.12;45.37
76352;BME280;65179;47.786;19.138;2023-10-09T09:21:34;100966.56;;;20.13;45.56
76352;BME280;65179;47.786;19.138;2023-10-09T09:24:08;100971.22;;;20.12;45.42
76352;BME280;65179;47.786;19.138;2023-10-09T09:26:55;100974.81;;;20.13;45.38
76352;BME280;65179;47.786;19.138;2023-10-09T09:32:02;100975.09;;;20.11;45.40
76352;BME280;65179;47.786;19.138;2023-10-09T09:34:49;100973.19;;;20.12;45.43
76352;BME280;65179;47.786;19.138;2023-10-09T09:37:25;100981.47;;;20.12;45.50
76352;BME280;65179;47.786;19.138;2023-10-09T09:39:54;100977.03;;;20.11;45.26
76352;BME280;65179;47.786;19.138;2023-10-09T09:42:22;100964.06;;;20.11;45.40
76352;BME280;65179;47.786;19.138;2023-10-09T09:44:52;100978.94;;;20.10;45.41
76352;BME280;65179;47.786;19.138;2023-10-09T09:47:18;100977.03;;;20.11;45.43
76352;BME280;65179;47.786;19.138;2023-10-09T09:49:52;100978.94;;;20.10;45.43
76352;BME280;65179;47.786;19.138;2023-10-09T09:52:19;100974.25;;;20.11;45.47
76352;BME280;65179;47.786;19.138;2023-10-09T09:54:45;100977.84;;;20.11;45.50
76352;BME280;65179;47.786;19.138;2023-10-09T09:57:16;100977.84;;;20.11;45.37
76352;BME280;65179;47.786;19.138;2023-10-09T09:59:51;101004.31;;;20.12;45.49
76352;BME280;65179;47.786;19.138;2023-10-09T10:02:37;100995.50;;;20.10;45.43
76352;BME280;65179;47.786;19.138;2023-10-09T10:05:06;100919.13;;;20.11;45.60
76352;BME280;65179;47.786;19.138;2023-10-09T10:07:36;100894.28;;;20.11;45.48
76352;BME280;65179;47.786;19.138;2023-10-09T10:10:37;100864.78;;;20.11;45.51
76352;BME280;65179;47.786;19.138;2023-10-09T10:13:05;100829.19;;;20.10;45.25
76352;BME280;65179;47.786;19.138;2023-10-09T10:18:30;100796.09;;;20.10;45.37
76352;BME280;65179;47.786;19.138;2023-10-09T10:21:14;100880.50;;;20.11;45.28
76352;BME280;65179;47.786;19.138;2023-10-09T10:23:42;100841.06;;;20.10;45.05
76352;BME280;65179;47.786;19.138;2023-10-09T10:26:17;100830.88;;;20.11;45.25
76352;BME280;65179;47.786;19.138;2023-10-09T10:28:44;100819.84;;;20.11;45.26
76352;BME280;65179;47.786;19.138;2023-10-09T10:31:11;100824.53;;;20.10;45.29
76352;BME280;65179;47.786;19.138;2023-10-09T10:36:24;100803.28;;;20.11;45.15
76352;BME280;65179;47.786;19.138;2023-10-09T10:39:05;100813.50;;;20.10;45.33
76352;BME280;65179;47.786;19.138;2023-10-09T10:41:58;100790.59;;;20.10;45.32
76352;BME280;65179;47.786;19.138;2023-10-09T10:44:31;100825.34;;;20.11;45.35
76352;BME280;65179;47.786;19.138;2023-10-09T10:47:09;100797.78;;;20.11;45.48
76352;BME280;65179;47.786;19.138;2023-10-09T10:49:53;100804.13;;;20.11;45.60
76352;BME280;65179;47.786;19.138;2023-10-09T10:52:38;100821.50;;;20.12;45.44
76352;BME280;65179;47.786;19.138;2023-10-09T10:55:12;100809.34;;;20.13;45.43
76352;BME280;65179;47.786;19.138;2023-10-09T10:57:56;100803.84;;;20.13;45.59
76352;BME280;65179;47.786;19.138;2023-10-09T11:00:27;100817.34;;;20.14;45.61
76352;BME280;65179;47.786;19.138;2023-10-09T11:03:19;100815.44;;;20.15;45.75
76352;BME280;65179;47.786;19.138;2023-10-09T11:06:00;100820.94;;;20.15;45.89
76352;BME280;65179;47.786;19.138;2023-10-09T11:08:46;100823.41;;;20.16;45.67
76352;BME280;65179;47.786;19.138;2023-10-09T11:11:22;100827.28;;;20.15;45.57
76352;BME280;65179;47.786;19.138;2023-10-09T11:13:48;100808.00;;;20.15;45.78
76352;BME280;65179;47.786;19.138;2023-10-09T11:16:24;100803.31;;;20.16;45.67
76352;BME280;65179;47.786;19.138;2023-10-09T11:19:12;100796.13;;;20.15;45.64
76352;BME280;65179;47.786;19.138;2023-10-09T11:21:59;100797.78;;;20.16;45.69
76352;BME280;65179;47.786;19.138;2023-10-09T11:24:32;100794.19;;;20.15;45.68
76352;BME280;65179;47.786;19.138;2023-10-09T11:27:06;100784.00;;;20.16;45.82
76352;BME280;65179;47.786;19.138;2023-10-09T11:29:36;100764.97;;;20.14;45.86
76352;BME280;65179;47.786;19.138;2023-10-09T11:32:20;100754.75;;;20.15;45.58
76352;BME280;65179;47.786;19.138;2023-10-09T11:34:49;100725.53;;;20.14;45.57
76352;BME280;65179;47.786;19.138;2023-10-09T11:37:25;100736.56;;;20.14;45.61
76352;BME280;65179;47.786;19.138;2023-10-09T11:39:57;100731.06;;;20.14;45.58
76352;BME280;65179;47.786;19.138;2023-10-09T11:42:23;100732.97;;;20.13;45.70
76352;BME280;65179;47.786;19.138;2023-10-09T11:45:06;100736.56;;;20.14;45.67
76352;BME280;65179;47.786;19.138;2023-10-09T11:47:53;100740.41;;;20.13;45.70
76352;BME280;65179;47.786;19.138;2023-10-09T11:53:08;100712.84;;;20.13;45.74
76352;BME280;65179;47.786;19.138;2023-10-09T11:55:37;100710.09;;;20.13;45.88
76352;BME280;65179;47.786;19.138;2023-10-09T11:58:03;100710.91;;;20.13;45.98
76352;BME280;65179;47.786;19.138;2023-10-09T12:00:31;100714.50;;;20.14;46.13
76352;BME280;65179;47.786;19.138;2023-10-09T12:03:07;100698.22;;;20.12;46.16
76352;BME280;65179;47.786;19.138;2023-10-09T12:05:33;100694.66;;;20.12;46.27
76352;BME280;65179;47.786;19.138;2023-10-09T12:07:59;100695.47;;;20.12;46.34
76352;BME280;65179;47.786;19.138;2023-10-09T12:10:26;100696.28;;;20.13;46.48
76352;BME280;65179;47.786;19.138;2023-10-09T12:12:53;100695.47;;;20.12;46.58
76352;BME280;65179;47.786;19.138;2023-10-09T12:15:18;100697.97;;;20.14;46.64
76352;BME280;65179;47.786;19.138;2023-10-09T12:17:45;100686.09;;;20.13;46.72
76352;BME280;65179;47.786;19.138;2023-10-09T12:20:14;100690.78;;;20.13;46.78
76352;BME280;65179;47.786;19.138;2023-10-09T12:22:56;100697.13;;;20.13;46.77
76352;BME280;65179;47.786;19.138;2023-10-09T12:25:23;100692.69;;;20.12;46.83
76352;BME280;65179;47.786;19.138;2023-10-09T12:27:48;100691.91;;;20.12;46.86
76352;BME280;65179;47.786;19.138;2023-10-09T12:30:14;100696.28;;;20.13;46.88
76352;BME280;65179;47.786;19.138;2023-10-09T12:32:39;100701.81;;;20.13;46.98
76352;BME280;65179;47.786;19.138;2023-10-09T12:35:06;100704.84;;;20.11;46.93
76352;BME280;65179;47.786;19.138;2023-10-09T12:37:43;100701.81;;;20.13;46.94
76352;BME280;65179;47.786;19.138;2023-10-09T12:40:08;100698.22;;;20.12;46.99
76352;BME280;65179;47.786;19.138;2023-10-09T12:42:36;100699.34;;;20.11;46.98
76352;BME280;65179;47.786;19.138;2023-10-09T12:45:02;100687.47;;;20.11;46.96
76352;BME280;65179;47.786;19.138;2023-10-09T12:47:34;100688.56;;;20.10;47.07
76352;BME280;65179;47.786;19.138;2023-10-09T12:50:05;100684.72;;;20.11;47.07
76352;BME280;65179;47.786;19.138;2023-10-09T12:52:35;100684.72;;;20.11;47.08
76352;BME280;65179;47.786;19.138;2023-10-09T12:55:03;100686.62;;;20.10;47.11
76352;BME280;65179;47.786;19.138;2023-10-09T12:57:33;100693.00;;;20.11;47.06
76352;BME280;65179;47.786;19.138;2023-10-09T12:59:59;100687.47;;;20.11;47.08
76352;BME280;65179;47.786;19.138;2023-10-09T13:02:24;100685.81;;;20.10;47.04
76352;BME280;65179;47.786;19.138;2023-10-09T13:04:58;100684.72;;;20.11;47.14
76352;BME280;65179;47.786;19.138;2023-10-09T13:07:25;100683.03;;;20.10;47.07
76352;BME280;65179;47.786;19.138;2023-10-09T13:09:51;100680.28;;;20.10;47.05
76352;BME280;65179;47.786;19.138;2023-10-09T13:12:37;100678.66;;;20.09;47.02
76352;BME280;65179;47.786;19.138;2023-10-09T13:15:10;100673.12;;;20.09;47.08
76352;BME280;65179;47.786;19.138;2023-10-09T13:17:39;100671.22;;;20.09;47.03
76352;BME280;65179;47.786;19.138;2023-10-09T13:20:05;100665.69;;;20.09;47.03
76352;BME280;65179;47.786;19.138;2023-10-09T13:22:44;100658.50;;;20.08;47.10
76352;BME280;65179;47.786;19.138;2023-10-09T13:25:13;100642.81;;;20.09;47.20
76352;BME280;65179;47.786;19.138;2023-10-09T13:27:45;100653.28;;;20.12;47.12
76352;BME280;65179;47.786;19.138;2023-10-09T13:30:19;100656.59;;;20.14;47.05
76352;BME280;65179;47.786;19.138;2023-10-09T13:32:51;100663.47;;;20.16;47.02
76352;BME280;65179;47.786;19.138;2023-10-09T13:35:19;100679.75;;;20.18;47.00